sensor_id;sensor_type;location;lat;lon;timestamp;P1;durP1;ratioP1;P2;durP2;ratioP2
2502;SDS011;1262;50.918;6.922;2023-02-28T00:01:07;2.60;;;2.35;;
2502;SDS011;1262;50.918;6.922;2023-02-28T00:03:34;6.50;;;3.42;;
2502;SDS011;1262;50.918;6.922;2023-02-28T00:06:01;4.70;;;2.78;;
2502;SDS011;1262;50.918;6.922;2023-02-28T00:08:29;6.15;;;2.95;;
2502;SDS011;1262;50.918;6.922;2023-02-28T00:10:56;3.95;;;2.35;;
2502;SDS011;1262;50.918;6.922;2023-02-28T00:13:23;2.80;;;2.10;;
2502;SDS011;1262;50.918;6.922;2023-02-28T00:15:59;2.45;;;2.22;;
2502;SDS011;1262;50.918;6.922;2023-02-28T00:18:26;3.08;;;2.40;;
2502;SDS011;1262;50.918;6.922;2023-02-28T00:20:54;2.13;;;1.92;;
2502;SDS011;1262;50.918;6.922;2023-02-28T00:23:21;5.75;;;3.80;;
2502;SDS011;1262;50.918;6.922;2023-02-28T00:25:48;4.18;;;2.88;;
2502;SDS011;1262;50.918;6.922;2023-02-28T00:28:15;4.35;;;2.60;;
2502;SDS011;1262;50.918;6.922;2023-02-28T00:30:43;3.75;;;1.98;;
2502;SDS011;1262;50.918;6.922;2023-02-28T00:33:12;4.35;;;2.20;;
2502;SDS011;1262;50.918;6.922;2023-02-28T00:35:39;5.25;;;2.10;;
2502;SDS011;1262;50.918;6.922;2023-02-28T00:38:06;2.70;;;2.35;;
2502;SDS011;1262;50.918;6.922;2023-02-28T00:40:33;8.52;;;2.80;;
2502;SDS011;1262;50.918;6.922;2023-02-28T00:43:00;2.25;;;1.75;;
2502;SDS011;1262;50.918;6.922;2023-02-28T00:45:28;3.80;;;2.20;;
2502;SDS011;1262;50.918;6.922;2023-02-28T00:47:55;4.57;;;2.25;;
2502;SDS011;1262;50.918;6.922;2023-02-28T00:50:23;2.70;;;2.10;;
2502;SDS011;1262;50.918;6.922;2023-02-28T00:52:50;3.60;;;2.30;;
2502;SDS011;1262;50.918;6.922;2023-02-28T00:55:18;2.13;;;1.92;;
2502;SDS011;1262;50.918;6.922;2023-02-28T00:57:45;3.10;;;2.08;;
2502;SDS011;1262;50.918;6.922;2023-02-28T01:00:12;2.30;;;2.10;;
2502;SDS011;1262;50.918;6.922;2023-02-28T01:02:39;2.50;;;2.30;;
2502;SDS011;1262;50.918;6.922;2023-02-28T01:05:07;1.80;;;1.65;;
2502;SDS011;1262;50.918;6.922;2023-02-28T01:07:35;2.50;;;2.08;;
2502;SDS011;1262;50.918;6.922;2023-02-28T01:10:03;2.42;;;2.22;;
2502;SDS011;1262;50.918;6.922;2023-02-28T01:12:30;3.60;;;2.05;;
2502;SDS011;1262;50.918;6.922;2023-02-28T01:14:57;2.53;;;1.90;;
2502;SDS011;1262;50.918;6.922;2023-02-28T01:17:25;2.75;;;1.90;;
2502;SDS011;1262;50.918;6.922;2023-02-28T01:19:52;2.10;;;1.90;;
2502;SDS011;1262;50.918;6.922;2023-02-28T01:22:20;3.40;;;2.50;;
2502;SDS011;1262;50.918;6.922;2023-02-28T01:24:48;4.15;;;2.35;;
2502;SDS011;1262;50.918;6.922;2023-02-28T01:27:15;3.95;;;2.45;;
2502;SDS011;1262;50.918;6.922;2023-02-28T01:29:43;2.08;;;1.80;;
2502;SDS011;1262;50.918;6.922;2023-02-28T01:32:10;3.42;;;2.13;;
2502;SDS011;1262;50.918;6.922;2023-02-28T01:34:37;2.20;;;2.00;;
2502;SDS011;1262;50.918;6.922;2023-02-28T01:37:04;2.88;;;1.77;;
2502;SDS011;1262;50.918;6.922;2023-02-28T01:39:31;2.53;;;2.00;;
2502;SDS011;1262;50.918;6.922;2023-02-28T01:42:00;3.80;;;2.45;;
2502;SDS011;1262;50.918;6.922;2023-02-28T01:47:12;3.85;;;2.00;;
2502;SDS011;1262;50.918;6.922;2023-02-28T01:49:40;4.32;;;3.45;;
2502;SDS011;1262;50.918;6.922;2023-02-28T01:52:07;2.40;;;2.20;;
2502;SDS011;1262;50.918;6.922;2023-02-28T01:54:34;2.45;;;2.10;;
2502;SDS011;1262;50.918;6.922;2023-02-28T01:57:05;3.45;;;1.90;;
2502;SDS011;1262;50.918;6.922;2023-02-28T01:59:34;3.65;;;2.05;;
2502;SDS011;1262;50.918;6.922;2023-02-28T02:02:09;2.25;;;2.03;;
2502;SDS011;1262;50.918;6.922;2023-02-28T02:04:37;9.27;;;2.33;;
2502;SDS011;1262;50.918;6.922;2023-02-28T02:07:05;3.10;;;2.40;;
2502;SDS011;1262;50.918;6.922;2023-02-28T02:09:33;2.67;;;2.35;;
2502;SDS011;1262;50.918;6.922;2023-02-28T02:12:00;2.55;;;1.83;;
2502;SDS011;1262;50.918;6.922;2023-02-28T02:14:42;3.08;;;2.75;;
2502;SDS011;1262;50.918;6.922;2023-02-28T02:17:17;4.45;;;2.72;;
2502;SDS011;1262;50.918;6.922;2023-02-28T02:19:53;2.80;;;2.17;;
2502;SDS011;1262;50.918;6.922;2023-02-28T02:22:37;2.70;;;2.08;;
2502;SDS011;1262;50.918;6.922;2023-02-28T02:25:12;3.15;;;2.40;;
2502;SDS011;1262;50.918;6.922;2023-02-28T02:27:54;2.15;;;1.95;;
2502;SDS011;1262;50.918;6.922;2023-02-28T02:35:55;3.90;;;2.58;;
2502;SDS011;1262;50.918;6.922;2023-02-28T02:38:27;2.13;;;1.90;;
2502;SDS011;1262;50.918;6.922;2023-02-28T02:40:58;2.30;;;2.10;;
2502;SDS011;1262;50.918;6.922;2023-02-28T02:43:32;2.03;;;1.85;;
2502;SDS011;1262;50.918;6.922;2023-02-28T02:46:04;4.95;;;2.30;;
2502;SDS011;1262;50.918;6.922;2023-02-28T02:48:32;1.90;;;1.80;;
2502;SDS011;1262;50.918;6.922;2023-02-28T02:51:03;5.22;;;2.42;;
2502;SDS011;1262;50.918;6.922;2023-02-28T02:53:32;3.47;;;2.08;;
2502;SDS011;1262;50.918;6.922;2023-02-28T02:56:01;2.10;;;1.90;;
2502;SDS011;1262;50.918;6.922;2023-02-28T02:58:31;2.47;;;2.05;;
2502;SDS011;1262;50.918;6.922;2023-02-28T03:01:01;2.60;;;2.20;;
2502;SDS011;1262;50.918;6.922;2023-02-28T03:03:29;3.47;;;2.35;;
2502;SDS011;1262;50.918;6.922;2023-02-28T03:05:58;2.58;;;1.90;;
2502;SDS011;1262;50.918;6.922;2023-02-28T03:08:27;2.35;;;1.92;;
2502;SDS011;1262;50.918;6.922;2023-02-28T03:10:56;2.75;;;2.15;;
2502;SDS011;1262;50.918;6.922;2023-02-28T03:13:33;2.00;;;1.75;;
2502;SDS011;1262;50.918;6.922;2023-02-28T03:16:11;3.55;;;2.03;;
2502;SDS011;1262;50.918;6.922;2023-02-28T03:18:42;6.10;;;2.13;;
2502;SDS011;1262;50.918;6.922;2023-02-28T03:21:12;2.95;;;1.90;;
2502;SDS011;1262;50.918;6.922;2023-02-28T03:23:44;2.22;;;1.60;;
2502;SDS011;1262;50.918;6.922;2023-02-28T03:26:13;2.42;;;1.90;;
2502;SDS011;1262;50.918;6.922;2023-02-28T03:28:48;2.42;;;2.03;;
2502;SDS011;1262;50.918;6.922;2023-02-28T03:31:18;2.65;;;2.45;;
2502;SDS011;1262;50.918;6.922;2023-02-28T03:33:47;2.00;;;1.80;;
2502;SDS011;1262;50.918;6.922;2023-02-28T03:36:19;2.47;;;2.28;;
2502;SDS011;1262;50.918;6.922;2023-02-28T03:38:51;4.10;;;2.13;;
2502;SDS011;1262;50.918;6.922;2023-02-28T03:41:21;2.42;;;2.10;;
2502;SDS011;1262;50.918;6.922;2023-02-28T03:43:50;4.18;;;2.17;;
2502;SDS011;1262;50.918;6.922;2023-02-28T03:46:18;2.75;;;1.80;;
2502;SDS011;1262;50.918;6.922;2023-02-28T03:48:48;2.92;;;1.63;;
2502;SDS011;1262;50.918;6.922;2023-02-28T03:51:17;3.90;;;2.33;;
2502;SDS011;1262;50.918;6.922;2023-02-28T03:53:45;2.83;;;2.00;;
2502;SDS011;1262;50.918;6.922;2023-02-28T03:56:17;3.70;;;2.45;;
2502;SDS011;1262;50.918;6.922;2023-02-28T03:58:47;2.97;;;2.17;;
2502;SDS011;1262;50.918;6.922;2023-02-28T04:01:16;3.50;;;2.25;;
2502;SDS011;1262;50.918;6.922;2023-02-28T04:03:45;2.20;;;2.00;;
2502;SDS011;1262;50.918;6.922;2023-02-28T04:06:14;2.40;;;1.90;;
2502;SDS011;1262;50.918;6.922;2023-02-28T04:08:42;4.55;;;2.25;;
2502;SDS011;1262;50.918;6.922;2023-02-28T04:11:13;1.92;;;1.75;;
2502;SDS011;1262;50.918;6.922;2023-02-28T04:13:44;2.70;;;2.10;;
2502;SDS011;1262;50.918;6.922;2023-02-28T04:16:12;2.97;;;2.65;;
2502;SDS011;1262;50.918;6.922;2023-02-28T04:18:39;2.67;;;2.40;;
2502;SDS011;1262;50.918;6.922;2023-02-28T04:21:08;2.65;;;2.20;;
2502;SDS011;1262;50.918;6.922;2023-02-28T04:23:35;3.28;;;2.20;;
2502;SDS011;1262;50.918;6.922;2023-02-28T04:26:02;2.45;;;2.25;;
2502;SDS011;1262;50.918;6.922;2023-02-28T04:28:30;3.88;;;2.45;;
2502;SDS011;1262;50.918;6.922;2023-02-28T04:30:59;5.65;;;2.80;;
2502;SDS011;1262;50.918;6.922;2023-02-28T04:33:27;3.50;;;2.30;;
2502;SDS011;1262;50.918;6.922;2023-02-28T04:35:57;4.63;;;2.50;;
2502;SDS011;1262;50.918;6.922;2023-02-28T04:38:25;2.60;;;2.40;;
2502;SDS011;1262;50.918;6.922;2023-02-28T04:40:52;4.90;;;2.33;;
2502;SDS011;1262;50.918;6.922;2023-02-28T04:43:19;3.15;;;2.30;;
2502;SDS011;1262;50.918;6.922;2023-02-28T04:45:46;4.20;;;2.33;;
2502;SDS011;1262;50.918;6.922;2023-02-28T04:48:15;2.95;;;2.35;;
2502;SDS011;1262;50.918;6.922;2023-02-28T04:50:42;3.78;;;2.63;;
2502;SDS011;1262;50.918;6.922;2023-02-28T04:53:09;3.65;;;2.85;;
2502;SDS011;1262;50.918;6.922;2023-02-28T04:55:36;4.70;;;2.13;;
2502;SDS011;1262;50.918;6.922;2023-02-28T04:58:05;2.88;;;2.30;;
2502;SDS011;1262;50.918;6.922;2023-02-28T05:00:32;4.57;;;3.35;;
2502;SDS011;1262;50.918;6.922;2023-02-28T05:02:59;2.42;;;2.13;;
2502;SDS011;1262;50.918;6.922;2023-02-28T05:05:28;2.45;;;2.25;;
2502;SDS011;1262;50.918;6.922;2023-02-28T05:07:55;3.40;;;2.67;;
2502;SDS011;1262;50.918;6.922;2023-02-28T05:10:22;6.68;;;2.25;;
2502;SDS011;1262;50.918;6.922;2023-02-28T05:12:49;2.75;;;2.08;;
2502;SDS011;1262;50.918;6.922;2023-02-28T05:15:17;2.90;;;2.60;;
2502;SDS011;1262;50.918;6.922;2023-02-28T05:17:44;4.75;;;2.30;;
2502;SDS011;1262;50.918;6.922;2023-02-28T05:20:11;3.13;;;2.83;;
2502;SDS011;1262;50.918;6.922;2023-02-28T05:22:40;2.63;;;2.25;;
2502;SDS011;1262;50.918;6.922;2023-02-28T05:25:08;2.17;;;2.00;;
2502;SDS011;1262;50.918;6.922;2023-02-28T05:27:37;2.35;;;2.15;;
2502;SDS011;1262;50.918;6.922;2023-02-28T05:30:05;5.43;;;2.75;;
2502;SDS011;1262;50.918;6.922;2023-02-28T05:32:35;3.65;;;2.40;;
2502;SDS011;1262;50.918;6.922;2023-02-28T05:35:02;2.70;;;2.50;;
2502;SDS011;1262;50.918;6.922;2023-02-28T05:37:30;2.88;;;2.60;;
2502;SDS011;1262;50.918;6.922;2023-02-28T05:39:58;2.67;;;2.40;;
2502;SDS011;1262;50.918;6.922;2023-02-28T05:42:25;4.18;;;2.47;;
2502;SDS011;1262;50.918;6.922;2023-02-28T05:44:53;2.58;;;2.30;;
2502;SDS011;1262;50.918;6.922;2023-02-28T05:47:20;3.08;;;2.50;;
2502;SDS011;1262;50.918;6.922;2023-02-28T05:49:47;3.65;;;2.50;;
2502;SDS011;1262;50.918;6.922;2023-02-28T05:52:14;2.38;;;1.92;;
2502;SDS011;1262;50.918;6.922;2023-02-28T05:54:41;2.38;;;2.05;;
2502;SDS011;1262;50.918;6.922;2023-02-28T05:57:10;2.55;;;2.20;;
2502;SDS011;1262;50.918;6.922;2023-02-28T05:59:37;3.63;;;2.17;;
2502;SDS011;1262;50.918;6.922;2023-02-28T06:02:04;3.17;;;2.58;;
2502;SDS011;1262;50.918;6.922;2023-02-28T06:04:32;4.18;;;2.60;;
2502;SDS011;1262;50.918;6.922;2023-02-28T06:06:59;3.28;;;2.30;;
2502;SDS011;1262;50.918;6.922;2023-02-28T06:09:26;2.58;;;2.10;;
2502;SDS011;1262;50.918;6.922;2023-02-28T06:11:54;3.40;;;2.10;;
2502;SDS011;1262;50.918;6.922;2023-02-28T06:14:22;3.10;;;2.20;;
2502;SDS011;1262;50.918;6.922;2023-02-28T06:16:49;2.85;;;2.30;;
2502;SDS011;1262;50.918;6.922;2023-02-28T06:19:16;4.45;;;2.75;;
2502;SDS011;1262;50.918;6.922;2023-02-28T06:21:44;3.47;;;2.50;;
2502;SDS011;1262;50.918;6.922;2023-02-28T06:24:11;4.35;;;2.72;;
2502;SDS011;1262;50.918;6.922;2023-02-28T06:26:38;7.63;;;2.88;;
2502;SDS011;1262;50.918;6.922;2023-02-28T06:29:05;5.93;;;2.38;;
2502;SDS011;1262;50.918;6.922;2023-02-28T06:31:34;3.95;;;2.65;;
2502;SDS011;1262;50.918;6.922;2023-02-28T06:34:01;3.80;;;2.25;;
2502;SDS011;1262;50.918;6.922;2023-02-28T06:36:31;3.10;;;2.60;;
2502;SDS011;1262;50.918;6.922;2023-02-28T06:38:58;2.33;;;2.13;;
2502;SDS011;1262;50.918;6.922;2023-02-28T06:41:25;3.17;;;2.28;;
2502;SDS011;1262;50.918;6.922;2023-02-28T06:43:52;2.80;;;2.13;;
2502;SDS011;1262;50.918;6.922;2023-02-28T06:46:20;3.25;;;2.00;;
2502;SDS011;1262;50.918;6.922;2023-02-28T06:48:49;2.80;;;2.33;;
2502;SDS011;1262;50.918;6.922;2023-02-28T06:51:17;2.78;;;2.25;;
2502;SDS011;1262;50.918;6.922;2023-02-28T06:53:45;4.72;;;2.08;;
2502;SDS011;1262;50.918;6.922;2023-02-28T06:56:13;4.57;;;2.20;;
2502;SDS011;1262;50.918;6.922;2023-02-28T06:58:41;2.30;;;1.95;;
2502;SDS011;1262;50.918;6.922;2023-02-28T07:01:08;4.10;;;2.17;;
2502;SDS011;1262;50.918;6.922;2023-02-28T07:03:36;2.58;;;2.03;;
2502;SDS011;1262;50.918;6.922;2023-02-28T07:06:05;3.83;;;2.63;;
2502;SDS011;1262;50.918;6.922;2023-02-28T07:08:33;4.15;;;2.60;;
2502;SDS011;1262;50.918;6.922;2023-02-28T07:11:00;3.40;;;2.28;;
2502;SDS011;1262;50.918;6.922;2023-02-28T07:13:28;2.92;;;2.63;;
2502;SDS011;1262;50.918;6.922;2023-02-28T07:15:55;3.50;;;2.90;;
2502;SDS011;1262;50.918;6.922;2023-02-28T07:18:32;3.22;;;2.40;;
2502;SDS011;1262;50.918;6.922;2023-02-28T07:21:06;5.03;;;2.80;;
2502;SDS011;1262;50.918;6.922;2023-02-28T07:23:34;5.13;;;2.85;;
2502;SDS011;1262;50.918;6.922;2023-02-28T07:26:03;3.33;;;3.03;;
2502;SDS011;1262;50.918;6.922;2023-02-28T07:28:30;2.63;;;2.28;;
2502;SDS011;1262;50.918;6.922;2023-02-28T07:31:02;4.80;;;2.30;;
2502;SDS011;1262;50.918;6.922;2023-02-28T07:33:29;5.13;;;2.97;;
2502;SDS011;1262;50.918;6.922;2023-02-28T07:35:59;4.30;;;2.63;;
2502;SDS011;1262;50.918;6.922;2023-02-28T07:38:28;3.35;;;2.42;;
2502;SDS011;1262;50.918;6.922;2023-02-28T07:40:55;3.28;;;2.97;;
2502;SDS011;1262;50.918;6.922;2023-02-28T07:43:22;4.55;;;2.33;;
2502;SDS011;1262;50.918;6.922;2023-02-28T07:45:50;2.95;;;2.60;;
2502;SDS011;1262;50.918;6.922;2023-02-28T07:48:17;4.25;;;2.63;;
2502;SDS011;1262;50.918;6.922;2023-02-28T07:50:44;2.70;;;2.20;;
2502;SDS011;1262;50.918;6.922;2023-02-28T07:53:17;3.28;;;2.25;;
2502;SDS011;1262;50.918;6.922;2023-02-28T07:55:46;3.45;;;2.50;;
2502;SDS011;1262;50.918;6.922;2023-02-28T07:58:13;2.50;;;2.30;;
2502;SDS011;1262;50.918;6.922;2023-02-28T08:00:40;3.63;;;2.47;;
2502;SDS011;1262;50.918;6.922;2023-02-28T08:03:08;3.17;;;2.42;;
2502;SDS011;1262;50.918;6.922;2023-02-28T08:05:37;4.43;;;3.65;;
2502;SDS011;1262;50.918;6.922;2023-02-28T08:08:04;3.63;;;2.55;;
2502;SDS011;1262;50.918;6.922;2023-02-28T08:10:32;3.80;;;2.60;;
2502;SDS011;1262;50.918;6.922;2023-02-28T08:13:00;5.40;;;2.90;;
2502;SDS011;1262;50.918;6.922;2023-02-28T08:15:27;4.00;;;2.28;;
2502;SDS011;1262;50.918;6.922;2023-02-28T08:17:54;3.10;;;2.58;;
2502;SDS011;1262;50.918;6.922;2023-02-28T08:20:22;2.90;;;2.13;;
2502;SDS011;1262;50.918;6.922;2023-02-28T08:22:49;2.88;;;1.90;;
2502;SDS011;1262;50.918;6.922;2023-02-28T08:25:16;3.65;;;2.58;;
2502;SDS011;1262;50.918;6.922;2023-02-28T08:27:43;2.30;;;2.00;;
2502;SDS011;1262;50.918;6.922;2023-02-28T08:30:12;2.85;;;2.60;;
2502;SDS011;1262;50.918;6.922;2023-02-28T08:32:40;2.42;;;2.22;;
2502;SDS011;1262;50.918;6.922;2023-02-28T08:35:08;2.25;;;1.80;;
2502;SDS011;1262;50.918;6.922;2023-02-28T08:37:35;3.60;;;2.38;;
2502;SDS011;1262;50.918;6.922;2023-02-28T08:40:02;4.10;;;2.55;;
2502;SDS011;1262;50.918;6.922;2023-02-28T08:42:30;2.80;;;1.98;;
2502;SDS011;1262;50.918;6.922;2023-02-28T08:44:58;3.38;;;2.92;;
2502;SDS011;1262;50.918;6.922;2023-02-28T08:47:27;3.60;;;2.58;;
2502;SDS011;1262;50.918;6.922;2023-02-28T08:49:54;2.47;;;2.20;;
2502;SDS011;1262;50.918;6.922;2023-02-28T08:52:21;2.10;;;1.90;;
2502;SDS011;1262;50.918;6.922;2023-02-28T08:54:48;2.13;;;1.65;;
2502;SDS011;1262;50.918;6.922;2023-02-28T08:57:16;2.60;;;2.40;;
2502;SDS011;1262;50.918;6.922;2023-02-28T08:59:43;2.97;;;1.75;;
2502;SDS011;1262;50.918;6.922;2023-02-28T09:02:11;4.40;;;2.05;;
2502;SDS011;1262;50.918;6.922;2023-02-28T09:04:40;1.98;;;1.77;;
2502;SDS011;1262;50.918;6.922;2023-02-28T09:07:10;2.30;;;1.80;;
2502;SDS011;1262;50.918;6.922;2023-02-28T09:09:37;2.35;;;1.70;;
2502;SDS011;1262;50.918;6.922;2023-02-28T09:12:18;2.25;;;1.73;;
2502;SDS011;1262;50.918;6.922;2023-02-28T09:14:45;2.90;;;1.90;;
2502;SDS011;1262;50.918;6.922;2023-02-28T09:17:12;1.60;;;1.50;;
2502;SDS011;1262;50.918;6.922;2023-02-28T09:19:41;4.28;;;1.65;;
2502;SDS011;1262;50.918;6.922;2023-02-28T09:22:08;2.55;;;1.92;;
2502;SDS011;1262;50.918;6.922;2023-02-28T09:24:35;2.75;;;1.85;;
2502;SDS011;1262;50.918;6.922;2023-02-28T09:27:03;1.70;;;1.60;;
2502;SDS011;1262;50.918;6.922;2023-02-28T09:29:30;1.90;;;1.70;;
2502;SDS011;1262;50.918;6.922;2023-02-28T09:31:57;1.85;;;1.60;;
2502;SDS011;1262;50.918;6.922;2023-02-28T09:34:25;1.95;;;1.63;;
2502;SDS011;1262;50.918;6.922;2023-02-28T09:36:53;1.65;;;1.55;;
2502;SDS011;1262;50.918;6.922;2023-02-28T09:39:21;1.80;;;1.40;;
2502;SDS011;1262;50.918;6.922;2023-02-28T09:41:49;2.72;;;1.60;;
2502;SDS011;1262;50.918;6.922;2023-02-28T09:44:18;1.50;;;1.40;;
2502;SDS011;1262;50.918;6.922;2023-02-28T09:46:48;2.60;;;1.60;;
2502;SDS011;1262;50.918;6.922;2023-02-28T09:49:18;4.28;;;1.98;;
2502;SDS011;1262;50.918;6.922;2023-02-28T09:51:47;4.68;;;2.05;;
2502;SDS011;1262;50.918;6.922;2023-02-28T09:54:18;2.20;;;1.85;;
2502;SDS011;1262;50.918;6.922;2023-02-28T09:56:48;2.53;;;1.70;;
2502;SDS011;1262;50.918;6.922;2023-02-28T09:59:20;2.22;;;1.80;;
2502;SDS011;1262;50.918;6.922;2023-02-28T10:01:52;2.15;;;1.95;;
2502;SDS011;1262;50.918;6.922;2023-02-28T10:04:30;4.80;;;1.90;;
2502;SDS011;1262;50.918;6.922;2023-02-28T10:07:01;2.25;;;1.75;;
2502;SDS011;1262;50.918;6.922;2023-02-28T10:09:30;3.25;;;1.70;;
2502;SDS011;1262;50.918;6.922;2023-02-28T10:12:00;2.05;;;1.85;;
2502;SDS011;1262;50.918;6.922;2023-02-28T10:14:29;1.98;;;1.75;;
2502;SDS011;1262;50.918;6.922;2023-02-28T10:16:59;2.00;;;1.80;;
2502;SDS011;1262;50.918;6.922;2023-02-28T10:19:30;2.97;;;1.90;;
2502;SDS011;1262;50.918;6.922;2023-02-28T10:21:59;2.92;;;2.03;;
2502;SDS011;1262;50.918;6.922;2023-02-28T10:24:28;3.58;;;1.95;;
2502;SDS011;1262;50.918;6.922;2023-02-28T10:26:59;1.88;;;1.70;;
2502;SDS011;1262;50.918;6.922;2023-02-28T10:29:26;3.00;;;1.98;;
2502;SDS011;1262;50.918;6.922;2023-02-28T10:32:01;2.47;;;1.83;;
2502;SDS011;1262;50.918;6.922;2023-02-28T10:34:29;2.60;;;2.40;;
2502;SDS011;1262;50.918;6.922;2023-02-28T10:36:56;3.70;;;2.35;;
2502;SDS011;1262;50.918;6.922;2023-02-28T10:39:39;2.28;;;2.08;;
2502;SDS011;1262;50.918;6.922;2023-02-28T10:42:20;2.33;;;2.13;;
2502;SDS011;1262;50.918;6.922;2023-02-28T10:44:50;3.97;;;2.50;;
2502;SDS011;1262;50.918;6.922;2023-02-28T10:47:30;7.78;;;2.65;;
2502;SDS011;1262;50.918;6.922;2023-02-28T10:49:59;5.15;;;2.60;;
2502;SDS011;1262;50.918;6.922;2023-02-28T10:52:33;4.30;;;2.03;;
2502;SDS011;1262;50.918;6.922;2023-02-28T10:55:16;2.75;;;1.95;;
2502;SDS011;1262;50.918;6.922;2023-02-28T10:57:48;3.38;;;1.83;;
2502;SDS011;1262;50.918;6.922;2023-02-28T11:00:16;3.42;;;1.85;;
2502;SDS011;1262;50.918;6.922;2023-02-28T11:02:44;2.75;;;2.13;;
2502;SDS011;1262;50.918;6.922;2023-02-28T11:05:24;2.17;;;1.70;;
2502;SDS011;1262;50.918;6.922;2023-02-28T11:07:52;3.15;;;1.80;;
2502;SDS011;1262;50.918;6.922;2023-02-28T11:10:20;2.15;;;1.95;;
2502;SDS011;1262;50.918;6.922;2023-02-28T11:12:53;3.45;;;2.08;;
2502;SDS011;1262;50.918;6.922;2023-02-28T11:18:24;3.30;;;2.05;;
2502;SDS011;1262;50.918;6.922;2023-02-28T11:20:53;3.70;;;2.33;;
2502;SDS011;1262;50.918;6.922;2023-02-28T11:23:21;2.60;;;1.98;;
2502;SDS011;1262;50.918;6.922;2023-02-28T11:25:52;2.50;;;2.30;;
2502;SDS011;1262;50.918;6.922;2023-02-28T11:28:27;3.45;;;2.75;;
2502;SDS011;1262;50.918;6.922;2023-02-28T11:31:00;2.55;;;2.33;;
2502;SDS011;1262;50.918;6.922;2023-02-28T11:33:28;2.55;;;2.03;;
2502;SDS011;1262;50.918;6.922;2023-02-28T11:35:57;2.67;;;2.47;;
2502;SDS011;1262;50.918;6.922;2023-02-28T11:38:26;3.03;;;2.20;;
2502;SDS011;1262;50.918;6.922;2023-02-28T11:40:59;2.25;;;2.05;;
2502;SDS011;1262;50.918;6.922;2023-02-28T11:43:33;4.63;;;2.47;;
2502;SDS011;1262;50.918;6.922;2023-02-28T11:46:06;2.83;;;2.50;;
2502;SDS011;1262;50.918;6.922;2023-02-28T11:48:38;5.88;;;2.50;;
2502;SDS011;1262;50.918;6.922;2023-02-28T11:51:10;2.40;;;2.17;;
2502;SDS011;1262;50.918;6.922;2023-02-28T11:56:40;2.83;;;2.33;;
2502;SDS011;1262;50.918;6.922;2023-02-28T11:59:18;3.85;;;2.03;;
2502;SDS011;1262;50.918;6.922;2023-02-28T12:04:33;3.38;;;2.90;;
2502;SDS011;1262;50.918;6.922;2023-02-28T12:07:03;2.20;;;2.03;;
2502;SDS011;1262;50.918;6.922;2023-02-28T12:09:43;3.17;;;2.30;;
2502;SDS011;1262;50.918;6.922;2023-02-28T12:12:18;3.50;;;2.47;;
2502;SDS011;1262;50.918;6.922;2023-02-28T12:14:53;2.47;;;2.28;;
2502;SDS011;1262;50.918;6.922;2023-02-28T12:17:27;2.15;;;2.00;;
2502;SDS011;1262;50.918;6.922;2023-02-28T12:19:58;3.13;;;2.45;;
2502;SDS011;1262;50.918;6.922;2023-02-28T12:22:29;3.22;;;2.45;;
2502;SDS011;1262;50.918;6.922;2023-02-28T12:25:20;2.95;;;2.53;;
2502;SDS011;1262;50.918;6.922;2023-02-28T12:27:48;3.78;;;2.60;;
2502;SDS011;1262;50.918;6.922;2023-02-28T12:30:21;2.33;;;2.13;;
2502;SDS011;1262;50.918;6.922;2023-02-28T12:32:49;4.68;;;2.88;;
2502;SDS011;1262;50.918;6.922;2023-02-28T12:35:18;2.35;;;2.15;;
2502;SDS011;1262;50.918;6.922;2023-02-28T12:37:47;3.22;;;2.50;;
2502;SDS011;1262;50.918;6.922;2023-02-28T12:40:17;5.38;;;2.50;;
2502;SDS011;1262;50.918;6.922;2023-02-28T12:42:46;2.30;;;2.10;;
2502;SDS011;1262;50.918;6.922;2023-02-28T12:45:17;5.20;;;2.67;;
2502;SDS011;1262;50.918;6.922;2023-02-28T12:47:46;4.28;;;3.00;;
2502;SDS011;1262;50.918;6.922;2023-02-28T12:50:15;3.65;;;2.88;;
2502;SDS011;1262;50.918;6.922;2023-02-28T12:52:45;2.80;;;2.55;;
2502;SDS011;1262;50.918;6.922;2023-02-28T12:55:16;3.88;;;2.72;;
2502;SDS011;1262;50.918;6.922;2023-02-28T12:57:48;2.92;;;2.67;;
2502;SDS011;1262;50.918;6.922;2023-02-28T13:00:17;3.65;;;2.75;;
2502;SDS011;1262;50.918;6.922;2023-02-28T13:09:18;5.00;;;2.63;;
2502;SDS011;1262;50.918;6.922;2023-02-28T13:15:16;3.20;;;2.90;;
2502;SDS011;1262;50.918;6.922;2023-02-28T13:21:48;3.97;;;2.80;;
2502;SDS011;1262;50.918;6.922;2023-02-28T14:03:55;6.40;;;3.28;;
2502;SDS011;1262;50.918;6.922;2023-02-28T14:06:25;3.15;;;2.85;;
2502;SDS011;1262;50.918;6.922;2023-02-28T14:08:54;3.00;;;2.80;;
2502;SDS011;1262;50.918;6.922;2023-02-28T14:11:29;3.63;;;2.92;;
2502;SDS011;1262;50.918;6.922;2023-02-28T14:13:57;3.92;;;3.45;;
2502;SDS011;1262;50.918;6.922;2023-02-28T14:16:25;4.68;;;3.45;;
2502;SDS011;1262;50.918;6.922;2023-02-28T14:18:57;4.40;;;3.00;;
2502;SDS011;1262;50.918;6.922;2023-02-28T14:21:29;3.95;;;3.35;;
2502;SDS011;1262;50.918;6.922;2023-02-28T14:24:03;4.43;;;2.90;;
2502;SDS011;1262;50.918;6.922;2023-02-28T14:26:41;3.65;;;3.15;;
2502;SDS011;1262;50.918;6.922;2023-02-28T14:29:17;6.22;;;3.25;;
2502;SDS011;1262;50.918;6.922;2023-02-28T14:31:48;3.20;;;2.83;;
2502;SDS011;1262;50.918;6.922;2023-02-28T14:34:26;3.42;;;3.08;;
2502;SDS011;1262;50.918;6.922;2023-02-28T14:36:57;2.55;;;2.35;;
2502;SDS011;1262;50.918;6.922;2023-02-28T14:39:25;4.00;;;3.28;;
2502;SDS011;1262;50.918;6.922;2023-02-28T14:41:55;4.00;;;3.55;;
2502;SDS011;1262;50.918;6.922;2023-02-28T14:44:28;5.13;;;3.50;;
2502;SDS011;1262;50.918;6.922;2023-02-28T14:46:56;3.60;;;3.30;;
2502;SDS011;1262;50.918;6.922;2023-02-28T14:49:25;3.88;;;3.47;;
2502;SDS011;1262;50.918;6.922;2023-02-28T14:52:02;4.25;;;3.42;;
2502;SDS011;1262;50.918;6.922;2023-02-28T14:54:30;3.45;;;3.00;;
2502;SDS011;1262;50.918;6.922;2023-02-28T14:56:58;7.40;;;3.50;;
2502;SDS011;1262;50.918;6.922;2023-02-28T14:59:27;3.35;;;3.00;;
2502;SDS011;1262;50.918;6.922;2023-02-28T15:04:36;3.88;;;3.20;;
2502;SDS011;1262;50.918;6.922;2023-02-28T15:07:12;3.58;;;3.28;;
2502;SDS011;1262;50.918;6.922;2023-02-28T16:04:33;3.92;;;3.53;;
2502;SDS011;1262;50.918;6.922;2023-02-28T16:07:00;3.05;;;2.65;;
2502;SDS011;1262;50.918;6.922;2023-02-28T16:09:28;4.30;;;3.25;;
2502;SDS011;1262;50.918;6.922;2023-02-28T16:11:56;3.83;;;3.20;;
2502;SDS011;1262;50.918;6.922;2023-02-28T16:14:26;4.50;;;3.22;;
2502;SDS011;1262;50.918;6.922;2023-02-28T16:16:56;6.22;;;3.65;;
2502;SDS011;1262;50.918;6.922;2023-02-28T16:19:23;7.45;;;4.10;;
2502;SDS011;1262;50.918;6.922;2023-02-28T16:21:52;5.72;;;3.55;;
2502;SDS011;1262;50.918;6.922;2023-02-28T16:24:19;6.70;;;3.70;;
2502;SDS011;1262;50.918;6.922;2023-02-28T16:26:47;3.33;;;3.03;;
2502;SDS011;1262;50.918;6.922;2023-02-28T16:29:18;3.15;;;2.85;;
2502;SDS011;1262;50.918;6.922;2023-02-28T16:31:47;6.38;;;3.20;;
2502;SDS011;1262;50.918;6.922;2023-02-28T16:34:14;4.57;;;2.95;;
2502;SDS011;1262;50.918;6.922;2023-02-28T16:36:41;5.35;;;3.13;;
2502;SDS011;1262;50.918;6.922;2023-02-28T16:39:10;4.38;;;2.80;;
2502;SDS011;1262;50.918;6.922;2023-02-28T16:41:37;3.17;;;2.88;;
2502;SDS011;1262;50.918;6.922;2023-02-28T16:44:06;4.13;;;3.30;;
2502;SDS011;1262;50.918;6.922;2023-02-28T16:46:37;4.22;;;3.03;;
2502;SDS011;1262;50.918;6.922;2023-02-28T16:49:04;3.85;;;3.22;;
2502;SDS011;1262;50.918;6.922;2023-02-28T16:51:31;3.63;;;3.28;;
2502;SDS011;1262;50.918;6.922;2023-02-28T16:53:58;3.40;;;3.10;;
2502;SDS011;1262;50.918;6.922;2023-02-28T16:56:27;4.75;;;3.13;;
2502;SDS011;1262;50.918;6.922;2023-02-28T16:58:54;3.92;;;3.50;;
2502;SDS011;1262;50.918;6.922;2023-02-28T17:01:22;6.47;;;3.20;;
2502;SDS011;1262;50.918;6.922;2023-02-28T17:03:52;4.38;;;3.15;;
2502;SDS011;1262;50.918;6.922;2023-02-28T17:06:19;7.78;;;3.05;;
2502;SDS011;1262;50.918;6.922;2023-02-28T17:08:47;4.70;;;3.20;;
2502;SDS011;1262;50.918;6.922;2023-02-28T17:11:14;6.00;;;3.72;;
2502;SDS011;1262;50.918;6.922;2023-02-28T17:13:43;5.30;;;3.53;;
2502;SDS011;1262;50.918;6.922;2023-02-28T17:16:13;4.50;;;3.20;;
2502;SDS011;1262;50.918;6.922;2023-02-28T17:18:43;5.80;;;3.90;;
2502;SDS011;1262;50.918;6.922;2023-02-28T17:21:12;3.75;;;2.75;;
2502;SDS011;1262;50.918;6.922;2023-02-28T17:23:40;4.35;;;3.45;;
2502;SDS011;1262;50.918;6.922;2023-02-28T17:26:09;8.07;;;3.30;;
2502;SDS011;1262;50.918;6.922;2023-02-28T17:28:38;3.45;;;3.08;;
2502;SDS011;1262;50.918;6.922;2023-02-28T17:31:07;4.30;;;3.05;;
2502;SDS011;1262;50.918;6.922;2023-02-28T17:33:34;5.03;;;3.38;;
2502;SDS011;1262;50.918;6.922;2023-02-28T17:36:01;4.28;;;3.08;;